createdAt,value
2022-08-02T00:03:24.517Z,17.67
2022-08-02T00:08:26.321Z,17.47
2022-08-02T00:13:28.044Z,17.50
2022-08-02T00:18:29.900Z,17.68
2022-08-02T00:23:31.834Z,17.56
2022-08-02T00:28:33.384Z,17.28
2022-08-02T00:34:26.255Z,17.19
2022-08-02T00:38:56.744Z,17.20
2022-08-02T00:43:58.279Z,17.26
2022-08-02T00:48:59.823Z,17.35
2022-08-02T00:54:02.880Z,17.49
2022-08-02T00:59:04.625Z,17.53
2022-08-02T01:04:08.609Z,17.39
2022-08-02T01:09:10.165Z,17.26
2022-08-02T01:14:14.672Z,17.20
2022-08-02T01:19:31.422Z,17.17
2022-08-02T01:24:53.604Z,17.17
2022-08-02T01:30:00.461Z,17.04
2022-08-02T01:35:10.688Z,17.11
2022-08-02T01:40:16.600Z,17.15
2022-08-02T01:45:20.460Z,17.08
2022-08-02T01:50:27.387Z,17.04
2022-08-02T01:55:57.954Z,16.90
2022-08-02T02:01:01.173Z,16.72
2022-08-02T02:06:05.463Z,16.55
2022-08-02T02:12:11.504Z,16.45
2022-08-02T02:16:30.297Z,16.51
2022-08-02T02:21:32.111Z,16.55
2022-08-02T02:26:38.429Z,16.31
2022-08-02T02:31:47.642Z,16.44
2022-08-02T02:36:51.505Z,16.29
2022-08-02T02:41:54.796Z,16.08
2022-08-02T02:46:57.283Z,16.07
2022-08-02T02:51:59.323Z,16.18
2022-08-02T02:57:01.894Z,16.26
2022-08-02T03:02:05.589Z,16.22
2022-08-02T03:07:09.289Z,16.15
2022-08-02T03:12:11.818Z,16.19
2022-08-02T03:17:13.560Z,16.26
2022-08-02T03:22:15.217Z,16.28
2022-08-02T03:27:16.766Z,16.27
2022-08-02T03:32:18.406Z,16.17
2022-08-02T03:37:21.768Z,16.15
2022-08-02T03:42:25.395Z,16.08
2022-08-02T03:47:28.394Z,15.93
2022-08-02T03:52:32.586Z,15.94
2022-08-02T03:57:37.614Z,16.03
2022-08-02T04:02:39.787Z,16.05
2022-08-02T04:08:33.275Z,15.95
2022-08-02T04:13:02.963Z,15.98
2022-08-02T04:18:04.622Z,16.06
2022-08-02T04:23:09.937Z,16.04
2022-08-02T04:28:17.713Z,16.16
2022-08-02T04:33:19.924Z,16.32
2022-08-02T04:38:21.582Z,16.41
2022-08-02T04:43:24.023Z,16.63
2022-08-02T04:48:25.560Z,16.41
2022-08-02T04:53:27.111Z,16.52
2022-08-02T04:58:44.066Z,16.64
2022-08-02T05:03:46.852Z,16.63
2022-08-02T05:08:52.328Z,16.64
2022-08-02T05:13:58.688Z,16.26
2022-08-02T05:19:02.256Z,16.56
2022-08-02T05:24:05.073Z,17.15
2022-08-02T05:29:06.808Z,17.73
2022-08-02T05:34:11.833Z,19.03
2022-08-02T05:39:19.176Z,18.77
2022-08-02T05:44:21.351Z,19.37
2022-08-02T05:49:22.938Z,20.09
2022-08-02T05:54:41.305Z,20.81
2022-08-02T06:00:24.714Z,20.07
2022-08-02T06:05:28.968Z,20.09
2022-08-02T06:10:31.854Z,20.51
2022-08-02T06:15:34.324Z,20.27
2022-08-02T06:20:43.077Z,20.00
2022-08-02T06:25:50.424Z,20.46
2022-08-02T06:30:54.478Z,21.69
2022-08-02T06:36:16.669Z,22.64
2022-08-02T06:41:20.375Z,22.74
2022-08-02T06:46:57.226Z,22.70
2022-08-02T06:51:43.706Z,23.34
2022-08-02T06:56:45.310Z,23.74
2022-08-02T07:01:47.018Z,24.09
2022-08-02T07:06:48.756Z,22.76
2022-08-02T07:11:50.463Z,24.31
2022-08-02T07:16:52.052Z,25.69
2022-08-02T07:21:59.505Z,25.95
2022-08-02T07:27:11.151Z,25.05
2022-08-02T07:32:13.459Z,26.16
2022-08-02T07:37:23.470Z,26.65
2022-08-02T07:42:37.103Z,26.41
2022-08-02T07:47:42.182Z,27.52
2022-08-02T07:52:44.607Z,27.10
2022-08-02T07:57:47.217Z,27.50
2022-08-02T08:02:48.967Z,26.82
2022-08-02T08:07:52.170Z,26.62
2022-08-02T08:12:53.755Z,28.13
2022-08-02T08:17:55.347Z,27.73
2022-08-02T08:22:57.028Z,26.70
2022-08-02T08:27:58.915Z,28.84
2022-08-02T08:33:00.608Z,30.05
2022-08-02T08:38:07.086Z,29.61
2022-08-02T08:43:09.428Z,29.67
2022-08-02T10:06:18.373Z,32.01
2022-08-02T10:11:24.652Z,30.99
2022-08-02T10:16:26.311Z,30.71
2022-08-02T10:21:40.949Z,30.27
2022-08-02T10:26:47.822Z,32.50
2022-08-02T10:31:55.742Z,32.20
2022-08-02T10:36:58.062Z,32.31
2022-08-02T10:41:59.659Z,32.72
2022-08-02T10:47:19.269Z,32.22
2022-08-02T10:52:27.228Z,33.82
2022-08-02T10:57:34.136Z,33.57
2022-08-02T11:02:46.957Z,33.33
2022-08-02T11:07:50.149Z,34.35
2022-08-02T11:13:15.995Z,34.01
2022-08-02T11:18:18.447Z,34.12
2022-08-02T11:23:44.525Z,34.81
2022-08-02T11:28:50.536Z,34.78
2022-08-02T11:33:52.838Z,35.32
2022-08-02T11:39:17.899Z,34.12
2022-08-02T11:44:20.181Z,34.71
2022-08-02T11:49:25.382Z,35.74
2022-08-02T11:54:32.208Z,36.10
2022-08-02T11:59:38.313Z,36.04
2022-08-02T12:04:41.281Z,36.33
2022-08-02T12:09:43.456Z,36.39
2022-08-02T12:14:45.101Z,35.51
2022-08-02T12:19:48.075Z,34.49
2022-08-02T12:24:52.005Z,34.20
2022-08-02T12:29:59.455Z,34.55
2022-08-02T12:35:14.016Z,35.29
2022-08-02T12:40:31.553Z,33.82
2022-08-02T12:45:48.909Z,33.79
2022-08-02T12:50:50.853Z,34.10
2022-08-02T12:56:02.420Z,33.28
2022-08-02T13:01:05.121Z,33.04
2022-08-02T13:06:23.073Z,33.15
2022-08-02T13:11:29.278Z,34.71
2022-08-02T13:16:31.513Z,34.68
2022-08-02T13:21:41.412Z,34.30
2022-08-02T13:26:55.128Z,34.08
2022-08-02T13:31:56.685Z,34.82
2022-08-02T13:36:58.274Z,35.31
2022-08-02T13:41:59.828Z,36.60
2022-08-02T13:47:02.363Z,35.84
2022-08-02T13:52:04.581Z,35.03
2022-08-02T13:57:06.283Z,35.97
2022-08-02T14:02:07.962Z,36.11
2022-08-02T14:07:09.658Z,35.79
2022-08-02T14:12:11.781Z,35.49
2022-08-02T14:17:13.635Z,34.79
2022-08-02T14:22:15.190Z,36.84
2022-08-02T14:27:16.859Z,37.15
2022-08-02T14:32:18.562Z,35.06
2022-08-02T14:37:20.105Z,34.60
2022-08-02T14:42:21.668Z,36.06
2022-08-02T14:47:23.239Z,35.04
2022-08-02T14:52:24.816Z,35.68
2022-08-02T14:57:26.374Z,35.03
2022-08-02T15:02:29.065Z,35.67
2022-08-02T15:07:30.632Z,36.11
2022-08-02T15:12:32.243Z,35.69
2022-08-02T15:17:33.795Z,35.48
2022-08-02T15:22:35.466Z,37.05
2022-08-02T15:27:39.490Z,36.09
2022-08-02T15:32:41.174Z,34.84
2022-08-02T15:37:55.285Z,35.28
2022-08-02T15:42:57.630Z,35.26
2022-08-02T15:47:59.160Z,35.23
2022-08-02T15:53:00.711Z,35.79
2022-08-02T15:58:02.520Z,36.29
2022-08-02T16:03:04.130Z,36.78
2022-08-02T16:08:05.676Z,37.45
2022-08-02T16:13:07.378Z,36.89
2022-08-02T16:18:09.018Z,36.62
2022-08-02T16:23:13.312Z,35.98
2022-08-02T16:28:14.896Z,36.10
2022-08-02T16:33:16.564Z,35.47
2022-08-02T16:38:18.103Z,35.09
2022-08-02T16:43:19.998Z,34.51
2022-08-02T16:48:21.570Z,34.48
2022-08-02T16:53:36.410Z,34.30
2022-08-02T16:58:39.027Z,35.27
2022-08-02T17:03:56.198Z,34.40
2022-08-02T17:08:58.771Z,33.84
2022-08-02T17:14:00.858Z,34.25
2022-08-02T17:19:02.617Z,34.15
2022-08-02T17:24:08.643Z,33.77
2022-08-02T17:29:14.575Z,34.08
2022-08-02T17:34:18.895Z,34.04
2022-08-02T17:39:33.796Z,34.20
2022-08-02T17:44:37.343Z,33.62
2022-08-02T17:49:44.434Z,33.17
2022-08-02T17:54:51.094Z,33.63
2022-08-02T18:00:03.897Z,33.66
2022-08-02T18:05:11.834Z,33.25
2022-08-02T18:10:15.499Z,33.02
2022-08-02T18:15:17.190Z,33.27
2022-08-02T18:20:22.000Z,33.18
2022-08-02T18:25:36.865Z,32.30
2022-08-02T18:30:45.819Z,31.53
2022-08-02T18:35:47.699Z,31.24
2022-08-02T18:40:51.266Z,30.94
2022-08-02T18:46:06.223Z,30.74
2022-08-02T18:51:15.814Z,30.56
2022-08-02T18:56:19.278Z,30.39
2022-08-02T19:01:34.002Z,30.16
2022-08-02T19:06:37.299Z,29.90
2022-08-02T19:11:41.171Z,29.69
2022-08-02T19:16:43.145Z,29.35
2022-08-02T19:27:13.282Z,28.86
2022-08-02T19:32:41.560Z,28.58
2022-08-02T19:37:41.154Z,28.34
2022-08-02T19:44:23.243Z,28.04
2022-08-02T19:48:06.239Z,27.76
2022-08-02T19:53:08.184Z,27.60
2022-08-02T19:58:13.203Z,27.33
2022-08-02T20:03:15.891Z,27.19
2022-08-02T20:08:31.552Z,27.18
2022-08-02T20:13:47.186Z,27.07
2022-08-02T20:18:49.032Z,27.08
2022-08-02T20:23:51.331Z,27.08
2022-08-02T20:28:52.926Z,26.98
2022-08-02T20:33:55.976Z,27.02
2022-08-02T20:38:58.186Z,26.98
2022-08-02T20:43:59.746Z,27.04
2022-08-02T20:49:06.767Z,26.90
2022-08-02T20:54:10.077Z,26.70
2022-08-02T20:59:16.128Z,26.52
2022-08-02T21:04:19.319Z,26.19
2022-08-02T21:09:23.805Z,25.92
2022-08-02T21:14:42.906Z,25.54
2022-08-02T21:19:44.566Z,25.33
2022-08-02T21:24:46.132Z,25.13
2022-08-02T21:29:49.044Z,24.85
2022-08-02T21:34:51.221Z,24.51
2022-08-02T21:39:54.452Z,24.20
2022-08-02T21:44:56.048Z,23.91
2022-08-02T21:50:13.033Z,23.71
2022-08-02T21:55:17.441Z,23.54
2022-08-02T22:00:28.772Z,23.46
2022-08-02T22:05:37.184Z,23.57
2022-08-02T22:10:39.136Z,23.55
2022-08-02T22:15:41.243Z,23.67
2022-08-02T22:20:48.128Z,23.74
2022-08-02T22:25:53.546Z,23.56
2022-08-02T22:30:55.343Z,23.48
2022-08-02T22:35:58.981Z,23.36
2022-08-02T22:41:00.611Z,23.17
2022-08-02T22:46:02.561Z,23.09
2022-08-02T22:51:04.181Z,23.00
2022-08-02T22:56:05.783Z,23.00
2022-08-02T22:58:47.817Z,29.17
2022-08-02T23:01:07.368Z,22.94
2022-08-02T23:06:09.441Z,23.05
2022-08-02T23:11:11.099Z,23.06
2022-08-02T23:16:18.686Z,22.93
2022-08-02T23:21:46.037Z,22.87
2022-08-02T23:26:41.775Z,22.76
2022-08-02T23:31:43.337Z,22.60
2022-08-02T23:36:46.547Z,22.60
2022-08-02T23:41:54.709Z,22.60
2022-08-02T23:46:58.992Z,22.51
2022-08-02T23:52:01.844Z,22.41
2022-08-02T23:57:20.488Z,22.26
